createdAt,value
2023-03-15T00:01:24.351Z,10.96
2023-03-15T00:03:52.230Z,10.82
2023-03-15T00:06:21.093Z,10.89
2023-03-15T00:08:48.878Z,10.89
2023-03-15T00:11:18.716Z,10.83
2023-03-15T00:13:47.511Z,10.82
2023-03-15T00:16:18.214Z,10.80
2023-03-15T00:18:48.311Z,10.90
2023-03-15T00:21:16.846Z,10.92
2023-03-15T00:23:45.592Z,10.72
2023-03-15T00:26:14.329Z,10.80
2023-03-15T00:28:42.570Z,10.85
2023-03-15T00:31:24.943Z,10.70
2023-03-15T00:33:54.136Z,10.79
2023-03-15T00:36:24.179Z,10.66
2023-03-15T00:38:54.497Z,10.75
2023-03-15T00:41:23.988Z,10.79
2023-03-15T00:43:53.096Z,10.66
2023-03-15T00:46:21.031Z,10.63
2023-03-15T00:48:51.611Z,10.57
2023-03-15T00:51:24.528Z,10.55
2023-03-15T00:53:54.559Z,10.42
2023-03-15T00:56:30.199Z,10.38
2023-03-15T00:58:59.060Z,10.40
2023-03-15T01:01:30.886Z,10.33
2023-03-15T01:03:58.687Z,10.32
2023-03-15T01:06:29.797Z,10.21
2023-03-15T01:08:59.604Z,10.29
2023-03-15T01:11:29.075Z,10.06
2023-03-15T01:14:00.071Z,10.17
2023-03-15T01:16:30.162Z,10.24
2023-03-15T01:18:58.731Z,10.22
2023-03-15T01:21:26.563Z,10.18
2023-03-15T01:23:55.207Z,10.14
2023-03-15T01:26:26.361Z,10.12
2023-03-15T01:28:55.275Z,10.09
2023-03-15T01:31:28.441Z,9.96
2023-03-15T01:33:57.500Z,9.91
2023-03-15T01:36:25.798Z,10.01
2023-03-15T01:38:55.455Z,10.09
2023-03-15T01:41:25.951Z,10.04
2023-03-15T01:43:54.688Z,9.97
2023-03-15T01:46:34.697Z,10.02
2023-03-15T01:49:15.879Z,9.90
2023-03-15T01:52:02.158Z,9.66
2023-03-15T01:54:50.299Z,9.91
2023-03-15T01:57:36.344Z,9.71
2023-03-15T02:00:17.929Z,9.60
2023-03-15T02:03:14.553Z,9.74
2023-03-15T02:06:01.394Z,9.52
2023-03-15T02:08:42.015Z,9.48
2023-03-15T02:11:12.419Z,9.37
2023-03-15T02:13:40.589Z,9.44
2023-03-15T02:16:09.187Z,9.47
2023-03-15T02:18:36.994Z,9.41
2023-03-15T02:21:44.460Z,9.29
2023-03-15T02:25:04.630Z,9.30
2023-03-15T02:27:36.518Z,9.34
2023-03-15T02:30:07.332Z,9.37
2023-03-15T02:32:35.337Z,9.27
2023-03-15T02:35:03.025Z,9.32
2023-03-15T02:37:30.892Z,9.30
2023-03-15T02:39:58.499Z,9.26
2023-03-15T02:42:27.076Z,9.42
2023-03-15T02:44:56.680Z,9.37
2023-03-15T02:47:32.943Z,9.25
2023-03-15T02:50:00.820Z,9.30
2023-03-15T02:52:29.282Z,9.43
2023-03-15T02:54:56.886Z,9.41
2023-03-15T02:57:24.840Z,9.32
2023-03-15T02:59:52.628Z,9.42
2023-03-15T03:02:21.083Z,9.23
2023-03-15T03:04:49.668Z,9.30
2023-03-15T03:07:17.303Z,9.16
2023-03-15T03:09:45.004Z,9.24
2023-03-15T03:12:12.806Z,9.26
2023-03-15T03:14:43.454Z,9.21
2023-03-15T03:17:11.208Z,9.15
2023-03-15T03:19:38.815Z,9.20
2023-03-15T03:22:07.610Z,9.15
2023-03-15T03:24:35.275Z,9.15
2023-03-15T03:27:02.872Z,9.25
2023-03-15T03:29:30.584Z,9.16
2023-03-15T03:31:58.416Z,9.16
2023-03-15T03:34:26.132Z,9.16
2023-03-15T03:36:53.769Z,9.04
2023-03-15T03:39:21.422Z,9.07
2023-03-15T03:41:50.037Z,9.07
2023-03-15T03:44:19.909Z,9.19
2023-03-15T03:46:47.592Z,9.11
2023-03-15T03:49:15.314Z,9.04
2023-03-15T03:51:42.973Z,8.94
2023-03-15T03:54:13.859Z,8.94
2023-03-15T03:56:42.206Z,9.04
2023-03-15T03:59:10.903Z,9.04
2023-03-15T04:01:38.618Z,9.09
2023-03-15T04:04:06.662Z,9.00
2023-03-15T04:06:34.552Z,8.98
2023-03-15T04:09:05.274Z,8.96
2023-03-15T04:11:32.940Z,9.13
2023-03-15T04:14:00.643Z,8.97
2023-03-15T04:16:28.273Z,9.08
2023-03-15T04:18:56.739Z,9.00
2023-03-15T04:21:24.533Z,8.90
2023-03-15T04:23:54.044Z,9.04
2023-03-15T04:26:21.655Z,8.94
2023-03-15T04:28:49.459Z,8.99
2023-03-15T04:31:17.219Z,8.95
2023-03-15T04:33:44.875Z,9.02
2023-03-15T04:36:18.515Z,8.94
2023-03-15T04:38:46.877Z,8.87
2023-03-15T04:41:18.192Z,9.05
2023-03-15T04:43:47.251Z,9.04
2023-03-15T04:46:15.003Z,8.93
2023-03-15T04:48:42.701Z,8.94
2023-03-15T04:51:11.245Z,8.79
2023-03-15T04:53:39.987Z,8.69
2023-03-15T04:56:08.035Z,8.85
2023-03-15T04:58:35.728Z,8.90
2023-03-15T05:01:03.493Z,8.61
2023-03-15T05:03:31.529Z,8.59
2023-03-15T05:05:59.183Z,8.56
2023-03-15T05:08:27.683Z,8.76
2023-03-15T05:10:55.465Z,8.63
2023-03-15T05:13:23.144Z,8.66
2023-03-15T05:15:51.613Z,8.60
2023-03-15T05:18:20.097Z,8.60
2023-03-15T05:20:47.986Z,8.45
2023-03-15T05:23:15.825Z,8.31
2023-03-15T05:25:43.627Z,8.22
2023-03-15T05:28:11.407Z,8.33
2023-03-15T05:30:39.050Z,8.22
2023-03-15T05:33:07.566Z,8.26
2023-03-15T05:35:36.081Z,8.26
2023-03-15T05:38:04.407Z,8.40
2023-03-15T05:40:33.249Z,8.31
2023-03-15T05:43:00.960Z,8.18
2023-03-15T05:45:31.381Z,8.18
2023-03-15T05:48:00.875Z,8.20
2023-03-15T05:50:28.725Z,8.29
2023-03-15T05:52:57.454Z,8.07
2023-03-15T05:55:28.166Z,8.06
2023-03-15T05:57:56.651Z,8.25
2023-03-15T06:00:24.324Z,8.14
2023-03-15T06:02:52.484Z,8.12
2023-03-15T06:05:20.963Z,7.96
2023-03-15T06:07:48.673Z,8.11
2023-03-15T06:10:16.754Z,8.16
2023-03-15T06:12:44.966Z,8.29
2023-03-15T06:15:13.162Z,8.18
2023-03-15T06:17:41.818Z,8.11
2023-03-15T06:20:11.034Z,8.11
2023-03-15T06:22:38.776Z,8.06
2023-03-15T06:25:08.399Z,7.95
2023-03-15T06:27:39.583Z,8.00
2023-03-15T06:30:09.060Z,7.93
2023-03-15T06:32:37.757Z,7.84
2023-03-15T06:35:09.243Z,7.98
2023-03-15T06:37:38.026Z,7.78
2023-03-15T06:40:12.568Z,7.94
2023-03-15T06:42:41.933Z,8.07
2023-03-15T06:45:11.469Z,7.88
2023-03-15T06:47:39.691Z,7.87
2023-03-15T06:50:09.706Z,7.71
2023-03-15T06:52:38.919Z,7.95
2023-03-15T06:55:07.718Z,7.84
2023-03-15T06:57:35.422Z,7.60
2023-03-15T07:00:11.282Z,7.57
2023-03-15T07:02:39.428Z,7.66
2023-03-15T07:05:08.953Z,7.67
2023-03-15T07:07:37.655Z,7.69
2023-03-15T07:10:06.073Z,7.39
2023-03-15T07:12:34.765Z,7.47
2023-03-15T07:15:02.543Z,7.56
2023-03-15T07:17:30.371Z,7.36
2023-03-15T07:19:58.928Z,7.43
2023-03-15T07:22:27.428Z,7.46
2023-03-15T07:24:55.914Z,7.26
2023-03-15T07:27:24.453Z,7.47
2023-03-15T07:29:52.222Z,7.30
2023-03-15T07:32:21.078Z,7.39
2023-03-15T07:34:48.802Z,7.34
2023-03-15T07:37:17.540Z,7.22
2023-03-15T07:39:45.325Z,6.97
2023-03-15T07:42:13.901Z,7.11
2023-03-15T07:44:43.510Z,7.10
2023-03-15T07:47:12.137Z,7.13
2023-03-15T07:49:39.921Z,7.11
2023-03-15T07:52:08.468Z,6.99
2023-03-15T07:54:36.959Z,7.11
2023-03-15T07:57:05.421Z,7.04
2023-03-15T07:59:34.081Z,7.06
2023-03-15T08:02:03.287Z,7.09
2023-03-15T08:04:31.400Z,7.15
2023-03-15T08:06:59.982Z,6.99
2023-03-15T08:09:27.784Z,6.91
2023-03-15T08:11:58.039Z,6.89
2023-03-15T08:14:25.842Z,6.92
2023-03-15T08:16:53.625Z,6.89
2023-03-15T08:19:22.311Z,7.01
2023-03-15T08:21:54.003Z,6.76
2023-03-15T08:24:22.160Z,6.88
2023-03-15T08:26:53.439Z,6.64
2023-03-15T08:29:21.705Z,6.74
2023-03-15T08:31:49.595Z,6.57
2023-03-15T08:34:17.400Z,6.60
2023-03-15T08:36:48.150Z,6.67
2023-03-15T08:39:16.111Z,6.76
2023-03-15T08:41:45.709Z,6.51
2023-03-15T08:44:14.340Z,6.83
2023-03-15T08:46:42.086Z,6.76
2023-03-15T08:49:09.843Z,6.57
2023-03-15T08:51:39.442Z,6.80
2023-03-15T08:54:07.581Z,6.52
2023-03-15T08:56:37.131Z,6.76
2023-03-15T08:59:05.307Z,6.40
2023-03-15T09:01:34.956Z,6.58
2023-03-15T09:04:03.352Z,6.52
2023-03-15T09:06:31.346Z,6.55
2023-03-15T09:08:59.286Z,6.50
2023-03-15T09:11:26.936Z,6.55
2023-03-15T09:13:57.344Z,6.45
2023-03-15T09:16:25.945Z,6.50
2023-03-15T09:18:53.786Z,6.52
2023-03-15T09:21:21.645Z,6.40
2023-03-15T09:23:49.315Z,6.33
2023-03-15T09:26:17.786Z,6.26
2023-03-15T09:28:46.358Z,6.35
2023-03-15T09:31:14.253Z,6.29
2023-03-15T09:33:46.715Z,6.61
2023-03-15T09:36:14.458Z,6.51
2023-03-15T09:38:44.515Z,6.47
2023-03-15T09:41:44.183Z,6.48
2023-03-15T09:44:36.973Z,6.51
2023-03-15T09:47:16.936Z,6.51
2023-03-15T09:50:39.293Z,6.67
2023-03-15T09:53:39.862Z,6.74
2023-03-15T09:56:46.508Z,6.72
2023-03-15T09:59:17.847Z,6.76
2023-03-15T10:01:48.902Z,6.81
2023-03-15T10:04:34.729Z,6.76
2023-03-15T10:07:07.070Z,6.85
2023-03-15T10:09:37.599Z,6.81
2023-03-15T10:12:20.896Z,7.08
2023-03-15T10:15:44.160Z,6.99
2023-03-15T10:18:26.986Z,7.09
2023-03-15T10:21:13.687Z,6.98
2023-03-15T10:23:55.482Z,7.21
2023-03-15T10:26:35.177Z,7.34
2023-03-15T10:29:18.010Z,7.33
2023-03-15T10:31:48.489Z,7.32
2023-03-15T10:34:18.652Z,7.97
2023-03-15T10:36:55.625Z,8.00
2023-03-15T10:39:26.411Z,7.79
2023-03-15T10:41:54.198Z,8.04
2023-03-15T10:44:28.033Z,8.46
2023-03-15T10:47:23.563Z,8.56
2023-03-15T10:49:59.681Z,8.29
2023-03-15T10:52:46.243Z,8.39
2023-03-15T10:55:22.084Z,8.48
2023-03-15T10:58:00.028Z,8.01
2023-03-15T11:00:37.261Z,8.40
2023-03-15T11:03:23.804Z,8.30
2023-03-15T11:05:57.083Z,7.99
2023-03-15T11:08:41.754Z,7.98
2023-03-15T11:11:11.103Z,8.29
2023-03-15T11:13:43.227Z,8.30
2023-03-15T11:16:13.879Z,8.92
2023-03-15T11:18:59.957Z,8.52
2023-03-15T11:21:37.001Z,8.66
2023-03-15T11:24:06.916Z,8.72
2023-03-15T11:26:41.581Z,8.32
2023-03-15T11:29:34.135Z,8.76
2023-03-15T11:32:27.362Z,8.92
2023-03-15T11:35:36.936Z,8.76
2023-03-15T11:38:19.293Z,8.69
2023-03-15T11:40:57.451Z,9.19
2023-03-15T11:44:08.898Z,8.74
2023-03-15T11:46:52.630Z,8.81
2023-03-15T11:50:02.568Z,8.69
2023-03-15T11:52:30.859Z,8.80
2023-03-15T11:55:03.852Z,9.01
2023-03-15T11:57:45.613Z,9.12
2023-03-15T12:00:32.160Z,9.04
2023-03-15T12:03:24.757Z,9.48
2023-03-15T12:06:12.522Z,9.20
2023-03-15T12:08:54.812Z,9.66
2023-03-15T12:11:22.455Z,9.36
2023-03-15T12:14:01.875Z,9.29
2023-03-15T12:16:43.689Z,9.24
2023-03-15T12:19:21.229Z,9.34
2023-03-15T12:21:58.205Z,9.72
2023-03-15T12:24:36.614Z,9.45
2023-03-15T12:27:19.431Z,10.45
2023-03-15T12:29:51.019Z,9.73
2023-03-15T12:32:20.057Z,9.72
2023-03-15T12:35:16.745Z,9.44
2023-03-15T12:37:48.864Z,9.12
2023-03-15T12:40:19.070Z,8.89
2023-03-15T12:42:47.676Z,8.68
2023-03-15T12:45:17.566Z,8.73
2023-03-15T12:48:12.741Z,8.51
2023-03-15T12:50:47.179Z,8.33
2023-03-15T12:53:42.264Z,8.48
2023-03-15T12:56:50.606Z,8.24
2023-03-15T13:00:01.055Z,7.82
2023-03-15T13:02:46.953Z,7.80
2023-03-15T13:06:03.886Z,7.83
2023-03-15T13:09:19.320Z,7.82
2023-03-15T13:12:55.322Z,7.71
2023-03-15T13:15:43.063Z,7.57
2023-03-15T13:18:23.472Z,7.50
2023-03-15T13:21:36.730Z,7.48
2023-03-15T13:24:48.622Z,7.90
2023-03-15T13:27:55.865Z,7.98
2023-03-15T13:30:53.078Z,7.96
2023-03-15T13:33:29.904Z,8.04
2023-03-15T13:36:16.384Z,7.83
2023-03-15T13:38:52.433Z,7.91
2023-03-15T13:41:32.220Z,7.77
2023-03-15T13:44:08.057Z,7.60
2023-03-15T13:46:37.656Z,7.63
2023-03-15T13:49:05.330Z,7.97
2023-03-15T13:51:38.091Z,7.80
2023-03-15T13:54:25.019Z,7.65
2023-03-15T13:57:14.339Z,7.57
2023-03-15T13:59:44.709Z,7.50
2023-03-15T14:02:43.032Z,7.38
2023-03-15T14:05:19.950Z,7.20
2023-03-15T14:08:07.348Z,7.39
2023-03-15T14:10:40.834Z,7.51
2023-03-15T14:13:33.232Z,7.43
2023-03-15T14:16:12.620Z,7.20
2023-03-15T14:18:42.026Z,7.21
2023-03-15T14:21:22.028Z,7.19
2023-03-15T14:23:51.639Z,7.44
2023-03-15T14:26:32.623Z,7.28
2023-03-15T14:29:18.178Z,7.20
2023-03-15T14:31:51.938Z,6.92
2023-03-15T14:34:33.765Z,6.90
2023-03-15T14:37:10.513Z,7.21
2023-03-15T14:39:42.914Z,7.28
2023-03-15T14:42:13.882Z,6.99
2023-03-15T14:44:42.585Z,7.14
2023-03-15T14:47:17.263Z,7.22
2023-03-15T14:49:47.344Z,7.38
2023-03-15T14:52:16.927Z,7.31
2023-03-15T14:54:50.637Z,7.13
2023-03-15T14:57:21.087Z,6.94
2023-03-15T14:59:51.084Z,7.23
2023-03-15T15:02:19.894Z,7.18
2023-03-15T15:04:48.588Z,7.03
2023-03-15T15:07:20.671Z,6.97
2023-03-15T15:09:51.624Z,7.08
2023-03-15T15:12:21.075Z,6.94
2023-03-15T15:14:49.726Z,7.18
2023-03-15T15:17:19.215Z,7.39
2023-03-15T15:19:47.868Z,7.01
2023-03-15T15:22:18.897Z,7.06
2023-03-15T15:24:50.294Z,6.99
2023-03-15T15:27:19.916Z,6.90
2023-03-15T15:29:48.501Z,7.15
2023-03-15T15:32:17.030Z,7.19
2023-03-15T15:34:44.791Z,6.80
2023-03-15T15:37:12.933Z,6.86
2023-03-15T15:39:41.635Z,6.70
2023-03-15T15:42:11.723Z,6.75
2023-03-15T15:44:40.406Z,6.81
2023-03-15T15:47:09.264Z,6.65
2023-03-15T15:49:36.999Z,6.44
2023-03-15T15:52:05.755Z,6.20
2023-03-15T15:54:35.821Z,6.28
2023-03-15T15:57:06.852Z,6.52
2023-03-15T15:59:35.693Z,6.51
2023-03-15T16:02:18.261Z,6.45
2023-03-15T16:04:46.977Z,6.42
2023-03-15T16:07:16.097Z,6.44
2023-03-15T16:09:55.606Z,6.42
2023-03-15T16:12:25.716Z,6.56
2023-03-15T16:14:56.036Z,6.39
2023-03-15T16:17:28.204Z,6.30
2023-03-15T16:19:59.040Z,6.26
2023-03-15T16:22:29.278Z,6.12
2023-03-15T16:25:01.624Z,6.10
2023-03-15T16:27:30.931Z,6.11
2023-03-15T16:29:58.770Z,5.94
2023-03-15T16:32:42.939Z,5.95
2023-03-15T16:35:17.257Z,6.02
2023-03-15T16:37:47.362Z,5.98
2023-03-15T16:40:29.246Z,5.90
2023-03-15T16:42:58.448Z,5.97
2023-03-15T16:45:28.682Z,6.08
2023-03-15T16:47:57.495Z,6.02
2023-03-15T16:50:27.281Z,6.11
2023-03-15T16:52:58.568Z,6.21
2023-03-15T16:55:33.088Z,6.14
2023-03-15T16:58:14.320Z,6.12
2023-03-15T17:00:48.536Z,6.27
2023-03-15T17:03:18.175Z,6.22
2023-03-15T17:05:49.479Z,6.17
2023-03-15T17:08:22.010Z,6.08
2023-03-15T17:10:51.972Z,6.02
2023-03-15T17:13:30.122Z,6.05
2023-03-15T17:15:59.856Z,6.23
2023-03-15T17:18:30.231Z,6.09
2023-03-15T17:20:59.765Z,6.09
2023-03-15T17:23:29.396Z,6.04
2023-03-15T17:25:58.425Z,6.07
2023-03-15T17:28:27.108Z,6.16
2023-03-15T17:31:14.056Z,6.18
2023-03-15T17:33:46.844Z,6.01
2023-03-15T17:36:23.680Z,6.11
2023-03-15T17:38:54.797Z,6.10
2023-03-15T17:41:31.796Z,5.86
2023-03-15T17:44:01.844Z,5.96
2023-03-15T17:46:33.379Z,5.99
2023-03-15T17:49:05.626Z,5.98
2023-03-15T17:51:38.114Z,5.97
2023-03-15T17:54:20.832Z,6.10
2023-03-15T17:56:51.781Z,6.18
2023-03-15T17:59:21.469Z,6.04
2023-03-15T18:01:51.498Z,5.94
2023-03-15T18:04:21.623Z,6.14
2023-03-15T18:06:51.374Z,5.96
2023-03-15T18:09:19.247Z,5.91
2023-03-15T18:11:51.901Z,5.88
2023-03-15T18:14:19.900Z,5.92
2023-03-15T18:16:49.727Z,5.98
2023-03-15T18:19:19.790Z,5.94
2023-03-15T18:21:49.487Z,6.03
2023-03-15T18:24:19.519Z,5.89
2023-03-15T18:26:53.008Z,6.01
2023-03-15T18:29:22.658Z,6.07
2023-03-15T18:31:55.830Z,6.16
2023-03-15T18:34:25.457Z,6.12
2023-03-15T18:36:55.927Z,6.02
2023-03-15T18:39:25.638Z,6.05
2023-03-15T18:41:55.168Z,5.98
2023-03-15T18:44:24.665Z,6.21
2023-03-15T18:46:54.196Z,6.08
2023-03-15T18:49:22.888Z,6.10
2023-03-15T18:51:56.379Z,6.07
2023-03-15T18:54:25.930Z,5.94
2023-03-15T18:56:54.867Z,6.14
2023-03-15T18:59:25.795Z,5.90
2023-03-15T19:01:54.629Z,5.92
2023-03-15T19:04:23.323Z,5.71
2023-03-15T19:06:51.145Z,5.73
2023-03-15T19:09:19.656Z,5.75
2023-03-15T19:11:49.637Z,5.53
2023-03-15T19:14:18.362Z,5.54
2023-03-15T19:16:47.168Z,5.49
2023-03-15T19:19:15.912Z,5.39
2023-03-15T19:21:44.583Z,5.38
2023-03-15T19:24:13.223Z,5.50
2023-03-15T19:26:42.048Z,5.50
2023-03-15T19:29:09.871Z,5.40
2023-03-15T19:31:39.066Z,5.36
2023-03-15T19:34:08.030Z,5.40
2023-03-15T19:36:35.851Z,5.37
2023-03-15T19:39:05.973Z,5.39
2023-03-15T19:41:34.741Z,5.45
2023-03-15T19:44:03.447Z,5.19
2023-03-15T19:46:31.188Z,5.03
2023-03-15T19:48:58.978Z,5.13
2023-03-15T19:51:28.055Z,5.11
2023-03-15T19:53:56.626Z,5.23
2023-03-15T19:56:25.184Z,5.06
2023-03-15T19:58:52.885Z,5.13
2023-03-15T20:01:20.829Z,4.99
2023-03-15T20:03:49.537Z,5.09
2023-03-15T20:06:21.488Z,4.99
2023-03-15T20:08:49.332Z,4.98
2023-03-15T20:11:25.184Z,4.92
2023-03-15T20:13:54.099Z,4.97
2023-03-15T20:16:23.392Z,4.88
2023-03-15T20:18:51.962Z,4.75
2023-03-15T20:21:20.559Z,4.75
2023-03-15T20:23:49.102Z,4.79
2023-03-15T20:26:18.811Z,4.69
2023-03-15T20:28:47.371Z,4.61
2023-03-15T20:31:19.686Z,4.73
2023-03-15T20:33:50.991Z,4.78
2023-03-15T20:36:19.804Z,4.76
2023-03-15T20:38:47.910Z,4.71
2023-03-15T20:41:15.831Z,4.71
2023-03-15T20:43:48.283Z,4.77
2023-03-15T20:46:18.956Z,4.67
2023-03-15T20:48:46.784Z,4.67
2023-03-15T20:51:14.466Z,4.55
2023-03-15T20:53:43.300Z,4.36
2023-03-15T20:56:11.776Z,4.36
2023-03-15T20:58:39.513Z,4.54
2023-03-15T21:01:11.754Z,4.34
2023-03-15T21:03:40.003Z,4.53
2023-03-15T21:06:08.447Z,4.41
2023-03-15T21:08:37.507Z,4.39
2023-03-15T21:11:06.838Z,4.50
2023-03-15T21:13:36.120Z,4.52
2023-03-15T21:16:07.040Z,4.53
2023-03-15T21:18:37.781Z,4.32
2023-03-15T21:21:09.594Z,4.39
2023-03-15T21:23:37.341Z,4.33
2023-03-15T21:26:11.025Z,4.26
2023-03-15T21:28:42.448Z,4.48
2023-03-15T21:31:10.340Z,4.43
2023-03-15T21:33:38.278Z,4.34
2023-03-15T21:36:08.173Z,4.48
2023-03-15T21:38:36.498Z,4.43
2023-03-15T21:41:09.899Z,4.41
2023-03-15T21:43:38.943Z,4.32
2023-03-15T21:46:14.112Z,4.47
2023-03-15T21:48:42.293Z,4.42
2023-03-15T21:51:10.524Z,4.34
2023-03-15T21:53:38.776Z,4.35
2023-03-15T21:56:07.225Z,4.38
2023-03-15T21:58:35.761Z,4.40
2023-03-15T22:01:09.477Z,4.36
2023-03-15T22:03:37.753Z,4.22
2023-03-15T22:06:06.927Z,4.27
2023-03-15T22:08:34.768Z,4.17
2023-03-15T22:11:02.534Z,4.23
2023-03-15T22:13:30.700Z,4.18
2023-03-15T22:15:58.550Z,4.28
2023-03-15T22:18:29.295Z,4.22
2023-03-15T22:20:57.694Z,4.07
2023-03-15T22:23:26.734Z,4.04
2023-03-15T22:25:57.191Z,4.20
2023-03-15T22:28:25.771Z,4.21
2023-03-15T22:30:53.794Z,4.27
2023-03-15T22:33:23.139Z,4.33
2023-03-15T22:35:57.827Z,4.30
2023-03-15T22:38:27.348Z,4.21
2023-03-15T22:41:09.590Z,4.20
2023-03-15T22:43:39.034Z,4.28
2023-03-15T22:46:07.794Z,4.28
2023-03-15T22:48:36.718Z,4.08
2023-03-15T22:51:10.041Z,4.27
2023-03-15T22:53:37.773Z,4.14
2023-03-15T22:56:06.758Z,4.18
2023-03-15T22:58:36.173Z,4.12
2023-03-15T23:01:04.423Z,4.21
2023-03-15T23:03:32.161Z,4.08
2023-03-15T23:06:00.501Z,4.06
2023-03-15T23:08:29.016Z,4.06
2023-03-15T23:10:58.800Z,3.99
2023-03-15T23:13:26.458Z,4.12
2023-03-15T23:15:56.378Z,4.15
2023-03-15T23:18:25.074Z,4.07
2023-03-15T23:20:52.790Z,4.09
2023-03-15T23:23:20.534Z,4.05
2023-03-15T23:25:48.315Z,3.97
2023-03-15T23:28:17.947Z,4.13
2023-03-15T23:30:45.804Z,4.13
2023-03-15T23:33:13.728Z,4.11
2023-03-15T23:35:42.296Z,3.96
2023-03-15T23:38:10.902Z,4.10
2023-03-15T23:40:38.669Z,3.96
2023-03-15T23:43:09.348Z,3.92
2023-03-15T23:45:37.096Z,3.95
2023-03-15T23:48:05.991Z,3.86
2023-03-15T23:50:33.707Z,3.82
2023-03-15T23:53:01.441Z,3.95
2023-03-15T23:55:29.353Z,3.97
2023-03-15T23:57:59.529Z,3.91
